sensor_id;sensor_type;location;lat;lon;timestamp;P1;durP1;ratioP1;P2;durP2;ratioP2
67049;SDS011;53955;52.442;13.284;2023-05-07T00:01:01;14.60;;;9.87;;
67049;SDS011;53955;52.442;13.284;2023-05-07T00:03:27;16.10;;;10.23;;
67049;SDS011;53955;52.442;13.284;2023-05-07T00:05:54;13.90;;;9.90;;
67049;SDS011;53955;52.442;13.284;2023-05-07T00:08:21;14.20;;;9.63;;
67049;SDS011;53955;52.442;13.284;2023-05-07T00:10:47;13.83;;;9.93;;
67049;SDS011;53955;52.442;13.284;2023-05-07T00:13:14;17.43;;;10.17;;
67049;SDS011;53955;52.442;13.284;2023-05-07T00:15:42;13.43;;;9.77;;
67049;SDS011;53955;52.442;13.284;2023-05-07T00:18:08;15.20;;;10.70;;
67049;SDS011;53955;52.442;13.284;2023-05-07T00:20:35;12.47;;;9.07;;
67049;SDS011;53955;52.442;13.284;2023-05-07T00:23:01;13.40;;;9.73;;
67049;SDS011;53955;52.442;13.284;2023-05-07T00:25:28;14.10;;;9.97;;
67049;SDS011;53955;52.442;13.284;2023-05-07T00:27:55;13.20;;;9.40;;
67049;SDS011;53955;52.442;13.284;2023-05-07T00:30:22;13.90;;;9.73;;
67049;SDS011;53955;52.442;13.284;2023-05-07T00:32:50;15.90;;;10.63;;
67049;SDS011;53955;52.442;13.284;2023-05-07T00:35:17;14.63;;;9.83;;
67049;SDS011;53955;52.442;13.284;2023-05-07T00:37:43;14.87;;;9.30;;
67049;SDS011;53955;52.442;13.284;2023-05-07T00:40:10;15.57;;;9.57;;
67049;SDS011;53955;52.442;13.284;2023-05-07T00:42:37;12.90;;;8.87;;
67049;SDS011;53955;52.442;13.284;2023-05-07T00:45:04;13.70;;;9.73;;
67049;SDS011;53955;52.442;13.284;2023-05-07T00:47:32;12.93;;;10.00;;
67049;SDS011;53955;52.442;13.284;2023-05-07T00:50:00;14.17;;;9.90;;
67049;SDS011;53955;52.442;13.284;2023-05-07T00:52:27;13.43;;;9.23;;
67049;SDS011;53955;52.442;13.284;2023-05-07T00:54:54;12.03;;;9.33;;
67049;SDS011;53955;52.442;13.284;2023-05-07T00:57:21;13.93;;;9.43;;
67049;SDS011;53955;52.442;13.284;2023-05-07T00:59:50;13.13;;;9.43;;
67049;SDS011;53955;52.442;13.284;2023-05-07T01:02:17;18.90;;;9.97;;
67049;SDS011;53955;52.442;13.284;2023-05-07T01:04:44;13.30;;;8.97;;
67049;SDS011;53955;52.442;13.284;2023-05-07T01:07:12;12.97;;;8.50;;
67049;SDS011;53955;52.442;13.284;2023-05-07T01:09:39;14.83;;;8.37;;
67049;SDS011;53955;52.442;13.284;2023-05-07T01:12:06;14.57;;;8.17;;
67049;SDS011;53955;52.442;13.284;2023-05-07T01:14:33;13.00;;;8.37;;
67049;SDS011;53955;52.442;13.284;2023-05-07T01:17:00;12.17;;;8.17;;
67049;SDS011;53955;52.442;13.284;2023-05-07T01:19:28;10.40;;;7.53;;
67049;SDS011;53955;52.442;13.284;2023-05-07T01:21:56;12.23;;;7.53;;
67049;SDS011;53955;52.442;13.284;2023-05-07T01:24:30;11.00;;;7.80;;
67049;SDS011;53955;52.442;13.284;2023-05-07T01:26:57;12.37;;;7.70;;
67049;SDS011;53955;52.442;13.284;2023-05-07T01:29:24;13.70;;;7.77;;
67049;SDS011;53955;52.442;13.284;2023-05-07T01:31:51;10.47;;;7.23;;
67049;SDS011;53955;52.442;13.284;2023-05-07T01:34:18;11.57;;;7.87;;
67049;SDS011;53955;52.442;13.284;2023-05-07T01:36:47;11.00;;;7.60;;
67049;SDS011;53955;52.442;13.284;2023-05-07T01:39:14;10.53;;;7.73;;
67049;SDS011;53955;52.442;13.284;2023-05-07T01:41:43;11.30;;;7.97;;
67049;SDS011;53955;52.442;13.284;2023-05-07T01:44:10;13.73;;;8.77;;
67049;SDS011;53955;52.442;13.284;2023-05-07T01:46:39;14.20;;;8.07;;
67049;SDS011;53955;52.442;13.284;2023-05-07T01:49:06;11.07;;;7.87;;
67049;SDS011;53955;52.442;13.284;2023-05-07T01:51:32;12.47;;;8.67;;
67049;SDS011;53955;52.442;13.284;2023-05-07T01:54:00;11.80;;;8.57;;
67049;SDS011;53955;52.442;13.284;2023-05-07T01:56:26;12.03;;;8.63;;
67049;SDS011;53955;52.442;13.284;2023-05-07T01:58:54;11.87;;;9.20;;
67049;SDS011;53955;52.442;13.284;2023-05-07T02:01:21;17.23;;;9.00;;
67049;SDS011;53955;52.442;13.284;2023-05-07T02:03:47;12.97;;;10.00;;
67049;SDS011;53955;52.442;13.284;2023-05-07T02:06:14;13.63;;;9.63;;
67049;SDS011;53955;52.442;13.284;2023-05-07T02:08:41;12.07;;;9.10;;
67049;SDS011;53955;52.442;13.284;2023-05-07T02:11:07;12.80;;;8.90;;
67049;SDS011;53955;52.442;13.284;2023-05-07T02:13:34;12.53;;;9.00;;
67049;SDS011;53955;52.442;13.284;2023-05-07T02:16:02;11.73;;;8.97;;
67049;SDS011;53955;52.442;13.284;2023-05-07T02:18:29;14.23;;;9.17;;
67049;SDS011;53955;52.442;13.284;2023-05-07T02:20:56;12.93;;;8.87;;
67049;SDS011;53955;52.442;13.284;2023-05-07T02:23:23;14.57;;;9.30;;
67049;SDS011;53955;52.442;13.284;2023-05-07T02:25:51;14.37;;;8.83;;
67049;SDS011;53955;52.442;13.284;2023-05-07T02:28:17;14.07;;;8.67;;
67049;SDS011;53955;52.442;13.284;2023-05-07T02:30:44;13.87;;;9.07;;
67049;SDS011;53955;52.442;13.284;2023-05-07T02:33:12;11.37;;;8.70;;
67049;SDS011;53955;52.442;13.284;2023-05-07T02:35:38;11.70;;;8.57;;
67049;SDS011;53955;52.442;13.284;2023-05-07T02:38:05;12.03;;;8.30;;
67049;SDS011;53955;52.442;13.284;2023-05-07T02:40:32;12.63;;;8.77;;
67049;SDS011;53955;52.442;13.284;2023-05-07T02:43:03;11.27;;;8.10;;
67049;SDS011;53955;52.442;13.284;2023-05-07T02:45:30;12.77;;;8.77;;
67049;SDS011;53955;52.442;13.284;2023-05-07T02:47:57;12.33;;;7.60;;
67049;SDS011;53955;52.442;13.284;2023-05-07T02:50:25;12.37;;;7.60;;
67049;SDS011;53955;52.442;13.284;2023-05-07T02:52:52;14.70;;;8.23;;
67049;SDS011;53955;52.442;13.284;2023-05-07T02:55:18;12.07;;;8.67;;
67049;SDS011;53955;52.442;13.284;2023-05-07T02:57:45;13.40;;;8.53;;
67049;SDS011;53955;52.442;13.284;2023-05-07T03:00:12;13.43;;;8.47;;
67049;SDS011;53955;52.442;13.284;2023-05-07T03:02:40;12.97;;;7.87;;
67049;SDS011;53955;52.442;13.284;2023-05-07T03:05:07;13.20;;;8.20;;
67049;SDS011;53955;52.442;13.284;2023-05-07T03:07:35;13.13;;;8.50;;
67049;SDS011;53955;52.442;13.284;2023-05-07T03:10:02;12.87;;;7.43;;
67049;SDS011;53955;52.442;13.284;2023-05-07T03:12:30;13.43;;;8.40;;
67049;SDS011;53955;52.442;13.284;2023-05-07T03:14:57;12.63;;;7.60;;
67049;SDS011;53955;52.442;13.284;2023-05-07T03:17:23;11.03;;;7.70;;
67049;SDS011;53955;52.442;13.284;2023-05-07T03:19:50;12.07;;;8.33;;
67049;SDS011;53955;52.442;13.284;2023-05-07T03:22:16;14.23;;;9.10;;
67049;SDS011;53955;52.442;13.284;2023-05-07T03:24:44;12.53;;;8.40;;
67049;SDS011;53955;52.442;13.284;2023-05-07T03:27:11;11.10;;;7.80;;
67049;SDS011;53955;52.442;13.284;2023-05-07T03:29:37;8.80;;;7.23;;
67049;SDS011;53955;52.442;13.284;2023-05-07T03:32:04;11.07;;;8.13;;
67049;SDS011;53955;52.442;13.284;2023-05-07T03:34:31;11.30;;;7.93;;
67049;SDS011;53955;52.442;13.284;2023-05-07T03:36:58;11.27;;;7.83;;
67049;SDS011;53955;52.442;13.284;2023-05-07T03:39:24;13.30;;;9.17;;
67049;SDS011;53955;52.442;13.284;2023-05-07T03:41:52;12.23;;;8.53;;
67049;SDS011;53955;52.442;13.284;2023-05-07T03:44:19;14.13;;;9.17;;
67049;SDS011;53955;52.442;13.284;2023-05-07T03:46:45;13.00;;;9.17;;
67049;SDS011;53955;52.442;13.284;2023-05-07T03:49:12;11.60;;;8.30;;
67049;SDS011;53955;52.442;13.284;2023-05-07T03:51:39;12.53;;;8.43;;
67049;SDS011;53955;52.442;13.284;2023-05-07T03:54:05;11.73;;;8.50;;
67049;SDS011;53955;52.442;13.284;2023-05-07T03:56:32;13.27;;;8.57;;
67049;SDS011;53955;52.442;13.284;2023-05-07T03:59:00;11.80;;;8.80;;
67049;SDS011;53955;52.442;13.284;2023-05-07T04:01:26;11.57;;;8.67;;
67049;SDS011;53955;52.442;13.284;2023-05-07T04:03:53;10.97;;;8.27;;
67049;SDS011;53955;52.442;13.284;2023-05-07T04:06:19;12.73;;;9.00;;
67049;SDS011;53955;52.442;13.284;2023-05-07T04:08:47;15.23;;;9.30;;
67049;SDS011;53955;52.442;13.284;2023-05-07T04:11:13;13.77;;;8.53;;
67049;SDS011;53955;52.442;13.284;2023-05-07T04:13:40;12.97;;;9.07;;
67049;SDS011;53955;52.442;13.284;2023-05-07T04:16:08;13.83;;;9.27;;
67049;SDS011;53955;52.442;13.284;2023-05-07T04:18:34;11.57;;;8.20;;
67049;SDS011;53955;52.442;13.284;2023-05-07T04:21:01;13.47;;;8.77;;
67049;SDS011;53955;52.442;13.284;2023-05-07T04:23:27;11.93;;;8.83;;
67049;SDS011;53955;52.442;13.284;2023-05-07T04:25:54;13.60;;;9.00;;
67049;SDS011;53955;52.442;13.284;2023-05-07T04:28:21;13.20;;;8.80;;
67049;SDS011;53955;52.442;13.284;2023-05-07T04:30:47;16.80;;;9.00;;
67049;SDS011;53955;52.442;13.284;2023-05-07T04:33:15;11.87;;;8.47;;
67049;SDS011;53955;52.442;13.284;2023-05-07T04:35:42;12.40;;;8.70;;
67049;SDS011;53955;52.442;13.284;2023-05-07T04:38:09;12.77;;;8.57;;
67049;SDS011;53955;52.442;13.284;2023-05-07T04:40:36;13.83;;;8.77;;
67049;SDS011;53955;52.442;13.284;2023-05-07T04:43:03;12.37;;;7.83;;
67049;SDS011;53955;52.442;13.284;2023-05-07T04:45:30;11.70;;;8.60;;
67049;SDS011;53955;52.442;13.284;2023-05-07T04:47:57;10.63;;;7.57;;
67049;SDS011;53955;52.442;13.284;2023-05-07T04:50:25;9.43;;;7.30;;
67049;SDS011;53955;52.442;13.284;2023-05-07T04:52:52;10.90;;;7.70;;
67049;SDS011;53955;52.442;13.284;2023-05-07T04:55:18;12.00;;;7.13;;
67049;SDS011;53955;52.442;13.284;2023-05-07T04:57:45;13.03;;;7.10;;
67049;SDS011;53955;52.442;13.284;2023-05-07T05:00:12;14.40;;;7.97;;
67049;SDS011;53955;52.442;13.284;2023-05-07T05:02:39;12.47;;;7.83;;
67049;SDS011;53955;52.442;13.284;2023-05-07T05:05:06;9.93;;;7.13;;
67049;SDS011;53955;52.442;13.284;2023-05-07T05:07:35;10.00;;;7.40;;
67049;SDS011;53955;52.442;13.284;2023-05-07T05:10:01;12.67;;;8.00;;
67049;SDS011;53955;52.442;13.284;2023-05-07T05:12:29;10.87;;;8.07;;
67049;SDS011;53955;52.442;13.284;2023-05-07T05:14:55;10.43;;;7.10;;
67049;SDS011;53955;52.442;13.284;2023-05-07T05:17:22;11.13;;;7.90;;
67049;SDS011;53955;52.442;13.284;2023-05-07T05:19:48;11.53;;;7.57;;
67049;SDS011;53955;52.442;13.284;2023-05-07T05:22:16;10.23;;;7.03;;
67049;SDS011;53955;52.442;13.284;2023-05-07T05:24:43;14.30;;;7.57;;
67049;SDS011;53955;52.442;13.284;2023-05-07T05:27:10;9.73;;;6.97;;
67049;SDS011;53955;52.442;13.284;2023-05-07T05:29:37;9.47;;;6.80;;
67049;SDS011;53955;52.442;13.284;2023-05-07T05:32:03;9.00;;;6.60;;
67049;SDS011;53955;52.442;13.284;2023-05-07T05:34:30;9.73;;;6.70;;
67049;SDS011;53955;52.442;13.284;2023-05-07T05:36:58;10.13;;;7.13;;
67049;SDS011;53955;52.442;13.284;2023-05-07T05:39:25;11.60;;;7.03;;
67049;SDS011;53955;52.442;13.284;2023-05-07T05:41:53;14.70;;;6.57;;
67049;SDS011;53955;52.442;13.284;2023-05-07T05:44:19;9.77;;;6.80;;
67049;SDS011;53955;52.442;13.284;2023-05-07T05:46:46;9.10;;;6.97;;
67049;SDS011;53955;52.442;13.284;2023-05-07T05:49:14;8.53;;;6.00;;
67049;SDS011;53955;52.442;13.284;2023-05-07T05:51:41;10.07;;;6.40;;
67049;SDS011;53955;52.442;13.284;2023-05-07T05:54:09;8.87;;;6.60;;
67049;SDS011;53955;52.442;13.284;2023-05-07T05:56:36;8.23;;;5.63;;
67049;SDS011;53955;52.442;13.284;2023-05-07T05:59:04;7.97;;;6.10;;
67049;SDS011;53955;52.442;13.284;2023-05-07T06:01:31;9.23;;;5.93;;
67049;SDS011;53955;52.442;13.284;2023-05-07T06:47:59;7.70;;;5.40;;
67049;SDS011;53955;52.442;13.284;2023-05-07T06:50:27;6.63;;;4.57;;
67049;SDS011;53955;52.442;13.284;2023-05-07T06:52:54;8.00;;;5.47;;
67049;SDS011;53955;52.442;13.284;2023-05-07T06:55:20;8.87;;;5.40;;
67049;SDS011;53955;52.442;13.284;2023-05-07T06:57:47;8.00;;;5.90;;
67049;SDS011;53955;52.442;13.284;2023-05-07T07:00:14;9.03;;;6.03;;
67049;SDS011;53955;52.442;13.284;2023-05-07T07:02:41;10.10;;;6.40;;
67049;SDS011;53955;52.442;13.284;2023-05-07T07:05:08;9.23;;;6.07;;
67049;SDS011;53955;52.442;13.284;2023-05-07T07:07:36;8.97;;;5.77;;
67049;SDS011;53955;52.442;13.284;2023-05-07T07:10:03;9.60;;;6.53;;
67049;SDS011;53955;52.442;13.284;2023-05-07T07:12:30;8.40;;;6.03;;
67049;SDS011;53955;52.442;13.284;2023-05-07T07:14:56;10.17;;;6.20;;
67049;SDS011;53955;52.442;13.284;2023-05-07T07:17:23;9.23;;;6.57;;
67049;SDS011;53955;52.442;13.284;2023-05-07T07:19:49;11.03;;;6.53;;
67049;SDS011;53955;52.442;13.284;2023-05-07T07:22:16;10.07;;;5.97;;
67049;SDS011;53955;52.442;13.284;2023-05-07T07:24:44;9.33;;;5.70;;
67049;SDS011;53955;52.442;13.284;2023-05-07T07:27:11;9.27;;;6.37;;
67049;SDS011;53955;52.442;13.284;2023-05-07T07:29:37;10.40;;;6.27;;
67049;SDS011;53955;52.442;13.284;2023-05-07T07:32:04;10.33;;;5.43;;
67049;SDS011;53955;52.442;13.284;2023-05-07T07:34:31;8.47;;;5.47;;
67049;SDS011;53955;52.442;13.284;2023-05-07T07:36:57;8.77;;;6.07;;
67049;SDS011;53955;52.442;13.284;2023-05-07T07:39:30;6.53;;;4.97;;
67049;SDS011;53955;52.442;13.284;2023-05-07T07:41:58;6.40;;;4.73;;
67049;SDS011;53955;52.442;13.284;2023-05-07T07:44:25;8.50;;;5.67;;
67049;SDS011;53955;52.442;13.284;2023-05-07T07:46:51;9.45;;;5.10;;
67049;SDS011;53955;52.442;13.284;2023-05-07T07:49:18;6.23;;;4.83;;
67049;SDS011;53955;52.442;13.284;2023-05-07T07:51:45;6.67;;;5.00;;
67049;SDS011;53955;52.442;13.284;2023-05-07T07:54:11;6.50;;;4.10;;
67049;SDS011;53955;52.442;13.284;2023-05-07T07:56:38;6.57;;;4.80;;
67049;SDS011;53955;52.442;13.284;2023-05-07T07:59:06;8.50;;;4.53;;
67049;SDS011;53955;52.442;13.284;2023-05-07T08:01:32;8.75;;;4.43;;
67049;SDS011;53955;52.442;13.284;2023-05-07T08:04:00;8.80;;;4.80;;
67049;SDS011;53955;52.442;13.284;2023-05-07T08:06:28;5.50;;;4.17;;
67049;SDS011;53955;52.442;13.284;2023-05-07T08:08:54;5.50;;;4.35;;
67049;SDS011;53955;52.442;13.284;2023-05-07T08:11:21;6.83;;;4.17;;
67049;SDS011;53955;52.442;13.284;2023-05-07T08:13:48;7.33;;;4.00;;
67049;SDS011;53955;52.442;13.284;2023-05-07T08:16:16;5.40;;;3.70;;
67049;SDS011;53955;52.442;13.284;2023-05-07T08:18:43;7.00;;;3.40;;
67049;SDS011;53955;52.442;13.284;2023-05-07T08:21:09;5.23;;;3.70;;
67049;SDS011;53955;52.442;13.284;2023-05-07T08:23:36;5.35;;;3.08;;
67049;SDS011;53955;52.442;13.284;2023-05-07T08:26:03;5.07;;;3.60;;
67049;SDS011;53955;52.442;13.284;2023-05-07T08:28:30;5.43;;;3.63;;
67049;SDS011;53955;52.442;13.284;2023-05-07T08:30:56;4.78;;;3.10;;
67049;SDS011;53955;52.442;13.284;2023-05-07T08:33:26;5.10;;;3.75;;
67049;SDS011;53955;52.442;13.284;2023-05-07T08:35:53;5.38;;;3.63;;
67049;SDS011;53955;52.442;13.284;2023-05-07T08:38:20;7.97;;;3.88;;
67049;SDS011;53955;52.442;13.284;2023-05-07T08:40:46;6.60;;;3.63;;
67049;SDS011;53955;52.442;13.284;2023-05-07T08:43:13;6.32;;;3.50;;
67049;SDS011;53955;52.442;13.284;2023-05-07T08:45:40;6.55;;;3.35;;
67049;SDS011;53955;52.442;13.284;2023-05-07T08:48:08;5.40;;;3.10;;
67049;SDS011;53955;52.442;13.284;2023-05-07T08:50:41;4.60;;;3.08;;
67049;SDS011;53955;52.442;13.284;2023-05-07T08:53:08;4.32;;;3.20;;
67049;SDS011;53955;52.442;13.284;2023-05-07T08:55:35;4.22;;;3.22;;
67049;SDS011;53955;52.442;13.284;2023-05-07T08:58:01;4.78;;;3.03;;
67049;SDS011;53955;52.442;13.284;2023-05-07T09:00:29;3.90;;;3.28;;
67049;SDS011;53955;52.442;13.284;2023-05-07T09:02:56;4.28;;;3.03;;
67049;SDS011;53955;52.442;13.284;2023-05-07T09:05:22;3.92;;;3.25;;
67049;SDS011;53955;52.442;13.284;2023-05-07T09:07:50;5.63;;;3.17;;
67049;SDS011;53955;52.442;13.284;2023-05-07T09:10:17;4.25;;;3.50;;
67049;SDS011;53955;52.442;13.284;2023-05-07T09:12:43;5.90;;;3.28;;
67049;SDS011;53955;52.442;13.284;2023-05-07T09:15:12;4.57;;;3.10;;
67049;SDS011;53955;52.442;13.284;2023-05-07T09:17:39;4.40;;;3.23;;
67049;SDS011;53955;52.442;13.284;2023-05-07T09:20:07;4.70;;;3.03;;
67049;SDS011;53955;52.442;13.284;2023-05-07T09:22:36;4.53;;;2.67;;
67049;SDS011;53955;52.442;13.284;2023-05-07T09:25:04;5.00;;;3.05;;
67049;SDS011;53955;52.442;13.284;2023-05-07T09:27:32;4.75;;;2.88;;
67049;SDS011;53955;52.442;13.284;2023-05-07T09:29:59;3.88;;;2.65;;
67049;SDS011;53955;52.442;13.284;2023-05-07T09:32:28;4.18;;;2.50;;
67049;SDS011;53955;52.442;13.284;2023-05-07T09:34:55;4.10;;;2.80;;
67049;SDS011;53955;52.442;13.284;2023-05-07T09:37:22;5.85;;;3.00;;
67049;SDS011;53955;52.442;13.284;2023-05-07T09:39:49;4.15;;;3.05;;
67049;SDS011;53955;52.442;13.284;2023-05-07T09:42:22;4.07;;;2.70;;
67049;SDS011;53955;52.442;13.284;2023-05-07T09:44:49;4.63;;;2.90;;
67049;SDS011;53955;52.442;13.284;2023-05-07T09:47:18;4.43;;;2.67;;
67049;SDS011;53955;52.442;13.284;2023-05-07T09:49:46;4.00;;;2.95;;
67049;SDS011;53955;52.442;13.284;2023-05-07T09:52:14;4.95;;;2.70;;
67049;SDS011;53955;52.442;13.284;2023-05-07T09:54:41;4.13;;;2.80;;
67049;SDS011;53955;52.442;13.284;2023-05-07T09:57:10;4.15;;;2.45;;
67049;SDS011;53955;52.442;13.284;2023-05-07T09:59:39;4.72;;;2.15;;
67049;SDS011;53955;52.442;13.284;2023-05-07T10:02:08;4.63;;;2.47;;
67049;SDS011;53955;52.442;13.284;2023-05-07T10:04:36;3.50;;;2.50;;
67049;SDS011;53955;52.442;13.284;2023-05-07T10:07:03;4.30;;;3.03;;
67049;SDS011;53955;52.442;13.284;2023-05-07T10:09:31;4.53;;;2.53;;
67049;SDS011;53955;52.442;13.284;2023-05-07T10:11:58;3.63;;;3.03;;
67049;SDS011;53955;52.442;13.284;2023-05-07T10:14:25;4.93;;;2.90;;
67049;SDS011;53955;52.442;13.284;2023-05-07T10:16:55;3.88;;;2.78;;
67049;SDS011;53955;52.442;13.284;2023-05-07T10:19:23;6.63;;;2.95;;
67049;SDS011;53955;52.442;13.284;2023-05-07T10:21:51;7.65;;;3.03;;
67049;SDS011;53955;52.442;13.284;2023-05-07T10:24:23;4.90;;;2.50;;
67049;SDS011;53955;52.442;13.284;2023-05-07T10:26:53;4.10;;;2.80;;
67049;SDS011;53955;52.442;13.284;2023-05-07T10:29:29;3.22;;;2.83;;
67049;SDS011;53955;52.442;13.284;2023-05-07T10:32:14;4.38;;;2.53;;
67049;SDS011;53955;52.442;13.284;2023-05-07T10:34:56;5.10;;;2.42;;
67049;SDS011;53955;52.442;13.284;2023-05-07T10:37:27;6.28;;;2.70;;
67049;SDS011;53955;52.442;13.284;2023-05-07T10:39:54;3.25;;;2.30;;
67049;SDS011;53955;52.442;13.284;2023-05-07T10:42:22;3.03;;;2.13;;
67049;SDS011;53955;52.442;13.284;2023-05-07T10:44:49;4.30;;;2.10;;
67049;SDS011;53955;52.442;13.284;2023-05-07T10:47:17;2.97;;;2.07;;
67049;SDS011;53955;52.442;13.284;2023-05-07T10:55:45;3.10;;;1.92;;
67049;SDS011;53955;52.442;13.284;2023-05-07T10:58:23;3.63;;;1.88;;
67049;SDS011;53955;52.442;13.284;2023-05-07T11:00:55;2.58;;;1.70;;
67049;SDS011;53955;52.442;13.284;2023-05-07T11:03:24;2.80;;;2.00;;
67049;SDS011;53955;52.442;13.284;2023-05-07T11:06:11;3.83;;;2.05;;
67049;SDS011;53955;52.442;13.284;2023-05-07T11:08:54;7.65;;;2.33;;
67049;SDS011;53955;52.442;13.284;2023-05-07T11:14:13;5.28;;;2.20;;
67049;SDS011;53955;52.442;13.284;2023-05-07T11:16:40;3.80;;;2.40;;
67049;SDS011;53955;52.442;13.284;2023-05-07T11:19:10;2.53;;;1.88;;
67049;SDS011;53955;52.442;13.284;2023-05-07T11:21:37;2.60;;;2.25;;
67049;SDS011;53955;52.442;13.284;2023-05-07T11:24:05;4.72;;;1.92;;
67049;SDS011;53955;52.442;13.284;2023-05-07T11:26:46;3.10;;;1.95;;
67049;SDS011;53955;52.442;13.284;2023-05-07T11:29:15;2.65;;;1.88;;
67049;SDS011;53955;52.442;13.284;2023-05-07T11:31:42;2.53;;;1.67;;
67049;SDS011;53955;52.442;13.284;2023-05-07T11:34:10;3.45;;;1.88;;
67049;SDS011;53955;52.442;13.284;2023-05-07T11:36:41;4.00;;;2.30;;
67049;SDS011;53955;52.442;13.284;2023-05-07T11:39:24;2.58;;;1.55;;
67049;SDS011;53955;52.442;13.284;2023-05-07T11:41:52;4.38;;;1.98;;
67049;SDS011;53955;52.442;13.284;2023-05-07T11:44:18;3.75;;;1.90;;
67049;SDS011;53955;52.442;13.284;2023-05-07T11:46:45;4.43;;;1.98;;
67049;SDS011;53955;52.442;13.284;2023-05-07T11:49:13;2.80;;;1.80;;
67049;SDS011;53955;52.442;13.284;2023-05-07T11:51:40;1.95;;;1.58;;
67049;SDS011;53955;52.442;13.284;2023-05-07T11:54:07;3.22;;;1.83;;
67049;SDS011;53955;52.442;13.284;2023-05-07T11:56:36;2.80;;;1.85;;
67049;SDS011;53955;52.442;13.284;2023-05-07T11:59:03;3.75;;;1.90;;
67049;SDS011;53955;52.442;13.284;2023-05-07T12:01:30;4.60;;;2.13;;
67049;SDS011;53955;52.442;13.284;2023-05-07T12:03:57;3.78;;;1.58;;
67049;SDS011;53955;52.442;13.284;2023-05-07T12:06:25;2.55;;;1.85;;
67049;SDS011;53955;52.442;13.284;2023-05-07T12:08:52;3.03;;;1.67;;
67049;SDS011;53955;52.442;13.284;2023-05-07T12:11:22;2.22;;;1.55;;
67049;SDS011;53955;52.442;13.284;2023-05-07T12:13:50;2.40;;;1.70;;
67049;SDS011;53955;52.442;13.284;2023-05-07T12:16:17;2.95;;;1.90;;
67049;SDS011;53955;52.442;13.284;2023-05-07T12:18:45;4.55;;;1.90;;
67049;SDS011;53955;52.442;13.284;2023-05-07T12:21:12;4.93;;;1.92;;
67049;SDS011;53955;52.442;13.284;2023-05-07T12:23:40;2.30;;;1.65;;
67049;SDS011;53955;52.442;13.284;2023-05-07T12:26:07;2.38;;;1.70;;
67049;SDS011;53955;52.442;13.284;2023-05-07T12:28:38;2.63;;;1.67;;
67049;SDS011;53955;52.442;13.284;2023-05-07T12:31:05;2.33;;;1.70;;
67049;SDS011;53955;52.442;13.284;2023-05-07T12:33:32;3.35;;;1.80;;
67049;SDS011;53955;52.442;13.284;2023-05-07T12:36:00;2.30;;;1.45;;
67049;SDS011;53955;52.442;13.284;2023-05-07T12:38:34;2.90;;;1.77;;
67049;SDS011;53955;52.442;13.284;2023-05-07T12:41:03;2.70;;;1.58;;
67049;SDS011;53955;52.442;13.284;2023-05-07T12:43:30;2.80;;;1.75;;
67049;SDS011;53955;52.442;13.284;2023-05-07T12:45:58;2.83;;;1.85;;
67049;SDS011;53955;52.442;13.284;2023-05-07T12:48:27;2.85;;;1.70;;
67049;SDS011;53955;52.442;13.284;2023-05-07T12:50:54;3.50;;;1.75;;
67049;SDS011;53955;52.442;13.284;2023-05-07T12:53:22;2.83;;;2.15;;
67049;SDS011;53955;52.442;13.284;2023-05-07T12:55:50;3.47;;;1.80;;
67049;SDS011;53955;52.442;13.284;2023-05-07T12:58:19;3.80;;;2.13;;
67049;SDS011;53955;52.442;13.284;2023-05-07T13:00:47;3.95;;;2.00;;
67049;SDS011;53955;52.442;13.284;2023-05-07T13:03:20;3.92;;;2.05;;
67049;SDS011;53955;52.442;13.284;2023-05-07T13:05:48;4.20;;;1.75;;
67049;SDS011;53955;52.442;13.284;2023-05-07T13:08:23;6.60;;;2.03;;
67049;SDS011;53955;52.442;13.284;2023-05-07T13:10:50;2.85;;;1.80;;
67049;SDS011;53955;52.442;13.284;2023-05-07T13:13:17;3.17;;;1.42;;
67049;SDS011;53955;52.442;13.284;2023-05-07T13:15:45;2.33;;;1.67;;
67049;SDS011;53955;52.442;13.284;2023-05-07T13:18:11;2.92;;;1.63;;
67049;SDS011;53955;52.442;13.284;2023-05-07T13:20:38;3.92;;;1.75;;
67049;SDS011;53955;52.442;13.284;2023-05-07T13:23:05;3.10;;;2.10;;
67049;SDS011;53955;52.442;13.284;2023-05-07T13:25:32;2.28;;;1.60;;
67049;SDS011;53955;52.442;13.284;2023-05-07T13:27:58;3.45;;;1.65;;
67049;SDS011;53955;52.442;13.284;2023-05-07T13:30:25;3.30;;;1.73;;
67049;SDS011;53955;52.442;13.284;2023-05-07T13:32:54;2.60;;;2.05;;
67049;SDS011;53955;52.442;13.284;2023-05-07T13:35:21;2.70;;;1.88;;
67049;SDS011;53955;52.442;13.284;2023-05-07T13:37:48;2.05;;;1.45;;
67049;SDS011;53955;52.442;13.284;2023-05-07T13:40:15;3.20;;;1.90;;
67049;SDS011;53955;52.442;13.284;2023-05-07T13:42:41;1.65;;;1.35;;
67049;SDS011;53955;52.442;13.284;2023-05-07T13:45:08;2.38;;;1.58;;
67049;SDS011;53955;52.442;13.284;2023-05-07T13:47:35;3.20;;;1.65;;
67049;SDS011;53955;52.442;13.284;2023-05-07T13:50:04;2.05;;;1.58;;
67049;SDS011;53955;52.442;13.284;2023-05-07T13:52:32;2.65;;;1.48;;
67049;SDS011;53955;52.442;13.284;2023-05-07T13:54:58;3.85;;;1.50;;
67049;SDS011;53955;52.442;13.284;2023-05-07T13:57:25;2.97;;;1.38;;
67049;SDS011;53955;52.442;13.284;2023-05-07T13:59:51;2.42;;;1.55;;
67049;SDS011;53955;52.442;13.284;2023-05-07T14:02:18;2.47;;;1.75;;
67049;SDS011;53955;52.442;13.284;2023-05-07T14:04:45;2.42;;;1.50;;
67049;SDS011;53955;52.442;13.284;2023-05-07T14:07:12;5.22;;;1.70;;
67049;SDS011;53955;52.442;13.284;2023-05-07T14:09:39;3.83;;;1.60;;
67049;SDS011;53955;52.442;13.284;2023-05-07T14:12:06;2.35;;;1.42;;
67049;SDS011;53955;52.442;13.284;2023-05-07T14:14:33;3.05;;;1.70;;
67049;SDS011;53955;52.442;13.284;2023-05-07T14:17:00;2.23;;;1.70;;
67049;SDS011;53955;52.442;13.284;2023-05-07T14:19:26;2.85;;;1.55;;
67049;SDS011;53955;52.442;13.284;2023-05-07T14:21:53;2.45;;;1.50;;
67049;SDS011;53955;52.442;13.284;2023-05-07T14:24:21;2.20;;;1.65;;
67049;SDS011;53955;52.442;13.284;2023-05-07T14:26:47;2.90;;;2.05;;
67049;SDS011;53955;52.442;13.284;2023-05-07T14:29:14;4.90;;;1.70;;
67049;SDS011;53955;52.442;13.284;2023-05-07T14:31:43;3.80;;;1.63;;
67049;SDS011;53955;52.442;13.284;2023-05-07T14:34:10;2.55;;;1.70;;
67049;SDS011;53955;52.442;13.284;2023-05-07T14:36:37;2.72;;;1.92;;
67049;SDS011;53955;52.442;13.284;2023-05-07T14:39:03;2.78;;;1.80;;
67049;SDS011;53955;52.442;13.284;2023-05-07T14:41:32;2.83;;;1.95;;
67049;SDS011;53955;52.442;13.284;2023-05-07T14:43:58;2.13;;;1.83;;
67049;SDS011;53955;52.442;13.284;2023-05-07T14:46:25;2.28;;;1.80;;
67049;SDS011;53955;52.442;13.284;2023-05-07T14:48:52;3.58;;;1.92;;
67049;SDS011;53955;52.442;13.284;2023-05-07T14:51:18;2.58;;;1.80;;
67049;SDS011;53955;52.442;13.284;2023-05-07T14:53:46;2.50;;;1.65;;
67049;SDS011;53955;52.442;13.284;2023-05-07T14:56:13;2.60;;;1.60;;
67049;SDS011;53955;52.442;13.284;2023-05-07T14:58:41;6.25;;;1.95;;
67049;SDS011;53955;52.442;13.284;2023-05-07T15:01:07;2.65;;;1.60;;
67049;SDS011;53955;52.442;13.284;2023-05-07T15:03:34;3.33;;;1.73;;
67049;SDS011;53955;52.442;13.284;2023-05-07T15:06:01;1.90;;;1.50;;
67049;SDS011;53955;52.442;13.284;2023-05-07T15:08:27;5.20;;;2.10;;
67049;SDS011;53955;52.442;13.284;2023-05-07T15:10:55;2.38;;;1.67;;
67049;SDS011;53955;52.442;13.284;2023-05-07T15:13:21;2.63;;;1.48;;
67049;SDS011;53955;52.442;13.284;2023-05-07T15:15:49;2.65;;;1.58;;
67049;SDS011;53955;52.442;13.284;2023-05-07T15:18:16;4.10;;;1.80;;
67049;SDS011;53955;52.442;13.284;2023-05-07T15:20:42;2.75;;;1.65;;
67049;SDS011;53955;52.442;13.284;2023-05-07T15:23:09;2.38;;;1.73;;